sensor_id;sensor_type;location;lat;lon;timestamp;pressure;altitude;pressure_sealevel;temperature;humidity
59513;BME280;45330;51.634;5.562;2023-03-21T00:00:18;101611.09;;;8.99;100.00
59513;BME280;45330;51.634;5.562;2023-03-21T00:02:43;101600.72;;;8.99;100.00
59513;BME280;45330;51.634;5.562;2023-03-21T00:05:09;101589.34;;;8.91;100.00
59513;BME280;45330;51.634;5.562;2023-03-21T00:07:34;101602.44;;;8.99;100.00
59513;BME280;45330;51.634;5.562;2023-03-21T00:09:59;101579.75;;;8.85;100.00
59513;BME280;45330;51.634;5.562;2023-03-21T00:12:25;101596.34;;;8.97;100.00
59513;BME280;45330;51.634;5.562;2023-03-21T00:14:50;101575.41;;;8.84;100.00
59513;BME280;45330;51.634;5.562;2023-03-21T00:17:18;101592.84;;;8.93;100.00
59513;BME280;45330;51.634;5.562;2023-03-21T00:19:46;101585.94;;;8.93;100.00
59513;BME280;45330;51.634;5.562;2023-03-21T00:22:13;101585.94;;;8.95;100.00
59513;BME280;45330;51.634;5.562;2023-03-21T00:24:39;101593.72;;;8.95;100.00
59513;BME280;45330;51.634;5.562;2023-03-21T00:27:04;101565.94;;;8.85;100.00
59513;BME280;45330;51.634;5.562;2023-03-21T00:29:30;101571.94;;;8.82;100.00
59513;BME280;45330;51.634;5.562;2023-03-21T00:31:55;101578.13;;;8.92;100.00
59513;BME280;45330;51.634;5.562;2023-03-21T00:34:21;101561.50;;;8.78;100.00
59513;BME280;45330;51.634;5.562;2023-03-21T00:36:46;101578.94;;;8.88;100.00
59513;BME280;45330;51.634;5.562;2023-03-21T00:39:11;101577.16;;;8.84;100.00
59513;BME280;45330;51.634;5.562;2023-03-21T00:41:38;101569.22;;;8.74;100.00
59513;BME280;45330;51.634;5.562;2023-03-21T00:44:04;101571.84;;;8.76;100.00
59513;BME280;45330;51.634;5.562;2023-03-21T00:46:29;101563.13;;;8.69;100.00
59513;BME280;45330;51.634;5.562;2023-03-21T00:48:55;101565.81;;;8.79;100.00
59513;BME280;45330;51.634;5.562;2023-03-21T00:51:22;101546.66;;;8.69;100.00
59513;BME280;45330;51.634;5.562;2023-03-21T00:53:54;101544.06;;;8.67;100.00
59513;BME280;45330;51.634;5.562;2023-03-21T00:56:20;101539.72;;;8.66;100.00
59513;BME280;45330;51.634;5.562;2023-03-21T00:58:46;101554.53;;;8.73;100.00
59513;BME280;45330;51.634;5.562;2023-03-21T01:01:12;101532.78;;;8.62;100.00
59513;BME280;45330;51.634;5.562;2023-03-21T01:03:37;101553.66;;;8.73;100.00
59513;BME280;45330;51.634;5.562;2023-03-21T01:06:09;101543.25;;;8.71;100.00
59513;BME280;45330;51.634;5.562;2023-03-21T01:08:41;101539.78;;;8.71;100.00
59513;BME280;45330;51.634;5.562;2023-03-21T01:11:13;101522.41;;;8.64;100.00
59513;BME280;45330;51.634;5.562;2023-03-21T01:13:39;101518.94;;;8.65;100.00
59513;BME280;45330;51.634;5.562;2023-03-21T01:16:06;101521.53;;;8.63;100.00
59513;BME280;45330;51.634;5.562;2023-03-21T01:18:34;101507.69;;;8.64;100.00
59513;BME280;45330;51.634;5.562;2023-03-21T01:21:00;101499.88;;;8.61;100.00
59513;BME280;45330;51.634;5.562;2023-03-21T01:23:27;101517.31;;;8.73;100.00
59513;BME280;45330;51.634;5.562;2023-03-21T01:25:54;101516.44;;;8.69;100.00
59513;BME280;45330;51.634;5.562;2023-03-21T01:28:20;101510.31;;;8.67;100.00
59513;BME280;45330;51.634;5.562;2023-03-21T01:30:49;101524.28;;;8.77;100.00
59513;BME280;45330;51.634;5.562;2023-03-21T01:33:17;101509.50;;;8.71;100.00
59513;BME280;45330;51.634;5.562;2023-03-21T01:35:43;101497.38;;;8.70;100.00
59513;BME280;45330;51.634;5.562;2023-03-21T01:38:08;101520.06;;;8.84;100.00
59513;BME280;45330;51.634;5.562;2023-03-21T01:40:35;101508.81;;;8.83;100.00
59513;BME280;45330;51.634;5.562;2023-03-21T01:43:01;101507.06;;;8.82;100.00
59513;BME280;45330;51.634;5.562;2023-03-21T01:48:50;101500.16;;;8.84;100.00
59513;BME280;45330;51.634;5.562;2023-03-21T01:51:18;101480.16;;;8.75;100.00
59513;BME280;45330;51.634;5.562;2023-03-21T01:53:44;101470.63;;;8.74;100.00
59513;BME280;45330;51.634;5.562;2023-03-21T01:56:24;101492.38;;;8.86;100.00
59513;BME280;45330;51.634;5.562;2023-03-21T01:58:52;101474.97;;;8.75;100.00
59513;BME280;45330;51.634;5.562;2023-03-21T02:01:20;101491.53;;;8.85;100.00
59513;BME280;45330;51.634;5.562;2023-03-21T02:03:48;101484.56;;;8.83;100.00
59513;BME280;45330;51.634;5.562;2023-03-21T02:06:33;101460.22;;;8.73;100.00
59513;BME280;45330;51.634;5.562;2023-03-21T02:09:04;101476.75;;;8.80;100.00
59513;BME280;45330;51.634;5.562;2023-03-21T02:11:33;101468.09;;;8.78;100.00
59513;BME280;45330;51.634;5.562;2023-03-21T02:14:00;101455.03;;;8.71;100.00
59513;BME280;45330;51.634;5.562;2023-03-21T02:17:26;101459.34;;;8.69;100.00
59513;BME280;45330;51.634;5.562;2023-03-21T02:25:08;101464.63;;;8.79;100.00
59513;BME280;45330;51.634;5.562;2023-03-21T02:27:48;101437.66;;;8.66;100.00
59513;BME280;45330;51.634;5.562;2023-03-21T02:43:46;101428.13;;;8.63;100.00
59513;BME280;45330;51.634;5.562;2023-03-21T02:46:28;101443.81;;;8.72;100.00
59513;BME280;45330;51.634;5.562;2023-03-21T02:48:57;101443.78;;;8.71;100.00
59513;BME280;45330;51.634;5.562;2023-03-21T02:51:24;101442.88;;;8.67;100.00
59513;BME280;45330;51.634;5.562;2023-03-21T02:53:55;101423.72;;;8.56;100.00
59513;BME280;45330;51.634;5.562;2023-03-21T02:56:23;101424.56;;;8.55;100.00
59513;BME280;45330;51.634;5.562;2023-03-21T02:58:51;101443.66;;;8.60;100.00
59513;BME280;45330;51.634;5.562;2023-03-21T03:01:17;101421.91;;;8.47;100.00
59513;BME280;45330;51.634;5.562;2023-03-21T03:03:42;101410.56;;;8.44;100.00
59513;BME280;45330;51.634;5.562;2023-03-21T03:06:30;101435.81;;;8.52;100.00
59513;BME280;45330;51.634;5.562;2023-03-21T03:11:47;101411.34;;;8.35;100.00
59513;BME280;45330;51.634;5.562;2023-03-21T03:25:23;101401.75;;;8.29;100.00
59513;BME280;45330;51.634;5.562;2023-03-21T03:27:51;101427.84;;;8.41;100.00
59513;BME280;45330;51.634;5.562;2023-03-21T03:30:19;101409.56;;;8.31;100.00
59513;BME280;45330;51.634;5.562;2023-03-21T03:32:49;101399.19;;;8.31;100.00
59513;BME280;45330;51.634;5.562;2023-03-21T03:35:19;101411.38;;;8.38;100.00
59513;BME280;45330;51.634;5.562;2023-03-21T03:37:59;101404.47;;;8.37;100.00
59513;BME280;45330;51.634;5.562;2023-03-21T03:40:26;101406.19;;;8.39;100.00
59513;BME280;45330;51.634;5.562;2023-03-21T03:42:57;101395.75;;;8.33;100.00
59513;BME280;45330;51.634;5.562;2023-03-21T03:45:29;101401.91;;;8.41;100.00
59513;BME280;45330;51.634;5.562;2023-03-21T03:53:16;101404.53;;;8.43;100.00
59513;BME280;45330;51.634;5.562;2023-03-21T03:55:45;101394.16;;;8.43;100.00
59513;BME280;45330;51.634;5.562;2023-03-21T03:58:12;101374.16;;;8.31;100.00
59513;BME280;45330;51.634;5.562;2023-03-21T04:00:43;101398.56;;;8.47;100.00
59513;BME280;45330;51.634;5.562;2023-03-21T04:03:08;101391.59;;;8.45;100.00
59513;BME280;45330;51.634;5.562;2023-03-21T04:05:35;101379.38;;;8.36;100.00
59513;BME280;45330;51.634;5.562;2023-03-21T04:08:01;101376.78;;;8.36;100.00
59513;BME280;45330;51.634;5.562;2023-03-21T04:10:26;101390.72;;;8.44;100.00
59513;BME280;45330;51.634;5.562;2023-03-21T04:12:52;101395.00;;;8.44;100.00
59513;BME280;45330;51.634;5.562;2023-03-21T04:15:17;101380.22;;;8.35;100.00
59513;BME280;45330;51.634;5.562;2023-03-21T04:17:46;101370.69;;;8.32;100.00
59513;BME280;45330;51.634;5.562;2023-03-21T04:20:12;101376.81;;;8.39;100.00
59513;BME280;45330;51.634;5.562;2023-03-21T04:22:38;101385.50;;;8.41;100.00
59513;BME280;45330;51.634;5.562;2023-03-21T04:25:04;101362.03;;;8.30;100.00
59513;BME280;45330;51.634;5.562;2023-03-21T04:27:30;101380.31;;;8.41;100.00
59513;BME280;45330;51.634;5.562;2023-03-21T04:29:57;101362.03;;;8.30;100.00
59513;BME280;45330;51.634;5.562;2023-03-21T04:32:23;101364.66;;;8.35;100.00
59513;BME280;45330;51.634;5.562;2023-03-21T04:34:49;101374.25;;;8.44;100.00
59513;BME280;45330;51.634;5.562;2023-03-21T04:37:19;101355.09;;;8.29;100.00
59513;BME280;45330;51.634;5.562;2023-03-21T04:39:45;101374.25;;;8.42;100.00
59513;BME280;45330;51.634;5.562;2023-03-21T04:42:12;101371.66;;;8.42;100.00
59513;BME280;45330;51.634;5.562;2023-03-21T04:44:40;101369.88;;;8.39;100.00
59513;BME280;45330;51.634;5.562;2023-03-21T04:47:06;101349.00;;;8.26;100.00
59513;BME280;45330;51.634;5.562;2023-03-21T04:49:32;101346.38;;;8.22;100.00
59513;BME280;45330;51.634;5.562;2023-03-21T04:51:58;101349.84;;;8.23;100.00
59513;BME280;45330;51.634;5.562;2023-03-21T04:54:23;101342.06;;;8.23;100.00
59513;BME280;45330;51.634;5.562;2023-03-21T04:56:49;101347.28;;;8.28;100.00
59513;BME280;45330;51.634;5.562;2023-03-21T04:59:17;101352.50;;;8.29;100.00
59513;BME280;45330;51.634;5.562;2023-03-21T05:01:43;101345.53;;;8.25;100.00
59513;BME280;45330;51.634;5.562;2023-03-21T05:04:11;101331.63;;;8.18;100.00
59513;BME280;45330;51.634;5.562;2023-03-21T05:06:36;101335.13;;;8.22;100.00
59513;BME280;45330;51.634;5.562;2023-03-21T05:09:03;101334.25;;;8.20;100.00
59513;BME280;45330;51.634;5.562;2023-03-21T05:11:31;101342.97;;;8.30;100.00
59513;BME280;45330;51.634;5.562;2023-03-21T05:13:58;101339.47;;;8.21;100.00
59513;BME280;45330;51.634;5.562;2023-03-21T05:16:24;101319.56;;;8.22;100.00
59513;BME280;45330;51.634;5.562;2023-03-21T05:18:53;101337.84;;;8.31;100.00
59513;BME280;45330;51.634;5.562;2023-03-21T05:21:22;101343.91;;;8.33;100.00
59513;BME280;45330;51.634;5.562;2023-03-21T05:23:47;101334.34;;;8.29;100.00
59513;BME280;45330;51.634;5.562;2023-03-21T05:26:20;101347.41;;;8.37;100.00
59513;BME280;45330;51.634;5.562;2023-03-21T05:28:46;101323.94;;;8.26;100.00
59513;BME280;45330;51.634;5.562;2023-03-21T05:31:13;101317.91;;;8.27;100.00
59513;BME280;45330;51.634;5.562;2023-03-21T05:33:44;101349.19;;;8.43;100.00
59513;BME280;45330;51.634;5.562;2023-03-21T05:36:10;101326.59;;;8.32;100.00
59513;BME280;45330;51.634;5.562;2023-03-21T05:38:35;101337.09;;;8.43;100.00
59513;BME280;45330;51.634;5.562;2023-03-21T05:41:01;101333.56;;;8.38;100.00
59513;BME280;45330;51.634;5.562;2023-03-21T05:43:26;101339.72;;;8.45;100.00
59513;BME280;45330;51.634;5.562;2023-03-21T05:45:53;101338.03;;;8.47;100.00
59513;BME280;45330;51.634;5.562;2023-03-21T05:48:19;101322.34;;;8.39;100.00
59513;BME280;45330;51.634;5.562;2023-03-21T05:50:44;101341.50;;;8.47;100.00
59513;BME280;45330;51.634;5.562;2023-03-21T05:53:10;101332.72;;;8.39;100.00
59513;BME280;45330;51.634;5.562;2023-03-21T05:55:38;101320.63;;;8.39;100.00
59513;BME280;45330;51.634;5.562;2023-03-21T05:58:03;101318.03;;;8.39;100.00
59513;BME280;45330;51.634;5.562;2023-03-21T06:00:29;101321.53;;;8.43;100.00
59513;BME280;45330;51.634;5.562;2023-03-21T06:02:54;101325.88;;;8.44;100.00
59513;BME280;45330;51.634;5.562;2023-03-21T06:05:20;101312.00;;;8.40;100.00
59513;BME280;45330;51.634;5.562;2023-03-21T06:07:45;101332.91;;;8.54;100.00
59513;BME280;45330;51.634;5.562;2023-03-21T06:10:10;101314.66;;;8.45;100.00
59513;BME280;45330;51.634;5.562;2023-03-21T06:12:36;101310.34;;;8.46;100.00
59513;BME280;45330;51.634;5.562;2023-03-21T06:15:03;101330.34;;;8.57;100.00
59513;BME280;45330;51.634;5.562;2023-03-21T06:17:30;101334.72;;;8.62;100.00
59513;BME280;45330;51.634;5.562;2023-03-21T06:19:55;101321.63;;;8.51;100.00
59513;BME280;45330;51.634;5.562;2023-03-21T06:22:21;101329.50;;;8.60;100.00
59513;BME280;45330;51.634;5.562;2023-03-21T06:24:46;101319.13;;;8.57;100.00
59513;BME280;45330;51.634;5.562;2023-03-21T06:27:12;101339.09;;;8.69;100.00
59513;BME280;45330;51.634;5.562;2023-03-21T06:29:38;101316.53;;;8.60;100.00
59513;BME280;45330;51.634;5.562;2023-03-21T06:32:03;101334.81;;;8.72;100.00
59513;BME280;45330;51.634;5.562;2023-03-21T06:34:28;101318.34;;;8.67;100.00
59513;BME280;45330;51.634;5.562;2023-03-21T06:36:55;101328.78;;;8.73;100.00
59513;BME280;45330;51.634;5.562;2023-03-21T06:39:20;101337.53;;;8.83;100.00
59513;BME280;45330;51.634;5.562;2023-03-21T06:41:45;101336.63;;;8.83;100.00
59513;BME280;45330;51.634;5.562;2023-03-21T06:44:11;101327.09;;;8.80;100.00
59513;BME280;45330;51.634;5.562;2023-03-21T06:46:36;101344.53;;;8.93;100.00
59513;BME280;45330;51.634;5.562;2023-03-21T06:49:02;101328.88;;;8.87;100.00
59513;BME280;45330;51.634;5.562;2023-03-21T06:51:28;101331.53;;;8.92;100.00
59513;BME280;45330;51.634;5.562;2023-03-21T06:53:53;101344.56;;;8.98;100.00
59513;BME280;45330;51.634;5.562;2023-03-21T06:56:18;101347.13;;;8.95;100.00
59513;BME280;45330;51.634;5.562;2023-03-21T06:58:44;101344.50;;;8.89;100.00
59513;BME280;45330;51.634;5.562;2023-03-21T07:01:10;101344.44;;;8.83;100.00
59513;BME280;45330;51.634;5.562;2023-03-21T07:03:36;101321.84;;;8.71;100.00
59513;BME280;45330;51.634;5.562;2023-03-21T07:06:06;101345.22;;;8.75;100.00
59513;BME280;45330;51.634;5.562;2023-03-21T07:08:33;101336.53;;;8.70;100.00
59513;BME280;45330;51.634;5.562;2023-03-21T07:10:58;101344.31;;;8.72;100.00
59513;BME280;45330;51.634;5.562;2023-03-21T07:13:23;101329.56;;;8.65;100.00
59513;BME280;45330;51.634;5.562;2023-03-21T07:15:49;101353.84;;;8.73;100.00
59513;BME280;45330;51.634;5.562;2023-03-21T07:18:14;101346.88;;;8.67;100.00
59513;BME280;45330;51.634;5.562;2023-03-21T07:20:40;101365.06;;;8.70;100.00
59513;BME280;45330;51.634;5.562;2023-03-21T07:23:05;101355.56;;;8.71;100.00
59513;BME280;45330;51.634;5.562;2023-03-21T07:25:31;101352.06;;;8.67;100.00
59513;BME280;45330;51.634;5.562;2023-03-21T07:27:57;101347.72;;;8.65;100.00
59513;BME280;45330;51.634;5.562;2023-03-21T07:30:22;101352.97;;;8.69;100.00
59513;BME280;45330;51.634;5.562;2023-03-21T07:32:47;101342.53;;;8.66;100.00
59513;BME280;45330;51.634;5.562;2023-03-21T07:35:15;101366.94;;;8.82;100.00
59513;BME280;45330;51.634;5.562;2023-03-21T07:37:41;101375.66;;;8.89;100.00
59513;BME280;45330;51.634;5.562;2023-03-21T07:40:07;101349.59;;;8.78;100.00
59513;BME280;45330;51.634;5.562;2023-03-21T07:42:35;101345.25;;;8.79;100.00
59513;BME280;45330;51.634;5.562;2023-03-21T07:45:01;101354.78;;;8.78;100.00
59513;BME280;45330;51.634;5.562;2023-03-21T07:47:27;101362.59;;;8.81;100.00
59513;BME280;45330;51.634;5.562;2023-03-21T07:49:53;101360.84;;;8.80;100.00
59513;BME280;45330;51.634;5.562;2023-03-21T07:52:19;101347.81;;;8.72;100.00
59513;BME280;45330;51.634;5.562;2023-03-21T07:54:44;101341.72;;;8.72;100.00
59513;BME280;45330;51.634;5.562;2023-03-21T07:57:10;101339.13;;;8.72;100.00
59513;BME280;45330;51.634;5.562;2023-03-21T07:59:35;101362.63;;;8.86;100.00
59513;BME280;45330;51.634;5.562;2023-03-21T08:02:00;101347.94;;;8.86;100.00
59513;BME280;45330;51.634;5.562;2023-03-21T08:04:26;101364.47;;;8.98;100.00
59513;BME280;45330;51.634;5.562;2023-03-21T08:06:52;101330.59;;;8.84;100.00
59513;BME280;45330;51.634;5.562;2023-03-21T08:09:17;101340.19;;;8.91;100.00
59513;BME280;45330;51.634;5.562;2023-03-21T08:11:43;101321.16;;;8.89;100.00
59513;BME280;45330;51.634;5.562;2023-03-21T08:14:08;101344.59;;;9.01;100.00
59513;BME280;45330;51.634;5.562;2023-03-21T08:16:33;101336.78;;;9.01;100.00
59513;BME280;45330;51.634;5.562;2023-03-21T08:18:59;101328.19;;;9.05;100.00
59513;BME280;45330;51.634;5.562;2023-03-21T08:21:24;101329.09;;;9.09;100.00
59513;BME280;45330;51.634;5.562;2023-03-21T08:23:51;101304.75;;;8.96;100.00
59513;BME280;45330;51.634;5.562;2023-03-21T08:26:17;101324.78;;;9.13;100.00
59513;BME280;45330;51.634;5.562;2023-03-21T08:28:44;101316.13;;;9.14;100.00
59513;BME280;45330;51.634;5.562;2023-03-21T08:31:11;101311.00;;;9.23;100.00
59513;BME280;45330;51.634;5.562;2023-03-21T08:33:38;101312.78;;;9.27;100.00
59513;BME280;45330;51.634;5.562;2023-03-21T08:36:04;101309.34;;;9.31;100.00
59513;BME280;45330;51.634;5.562;2023-03-21T08:38:30;101305.03;;;9.38;100.00
59513;BME280;45330;51.634;5.562;2023-03-21T08:40:58;101299.00;;;9.40;100.00
59513;BME280;45330;51.634;5.562;2023-03-21T08:43:27;101284.25;;;9.33;100.00
59513;BME280;45330;51.634;5.562;2023-03-21T08:45:54;101291.19;;;9.40;100.00
59513;BME280;45330;51.634;5.562;2023-03-21T08:48:19;101319.00;;;9.51;100.00
59513;BME280;45330;51.634;5.562;2023-03-21T08:50:45;101290.31;;;9.35;100.00
59513;BME280;45330;51.634;5.562;2023-03-21T08:53:10;101312.03;;;9.47;100.00
59513;BME280;45330;51.634;5.562;2023-03-21T08:55:36;101301.56;;;9.37;100.00
59513;BME280;45330;51.634;5.562;2023-03-21T08:58:02;101303.34;;;9.40;100.00
59513;BME280;45330;51.634;5.562;2023-03-21T09:00:28;101305.06;;;9.41;100.00
59513;BME280;45330;51.634;5.562;2023-03-21T09:02:54;101292.00;;;9.30;100.00
59513;BME280;45330;51.634;5.562;2023-03-21T09:05:20;101297.31;;;9.46;100.00
59513;BME280;45330;51.634;5.562;2023-03-21T09:07:46;101279.94;;;9.37;100.00
59513;BME280;45330;51.634;5.562;2023-03-21T09:10:17;101288.59;;;9.40;100.00
59513;BME280;45330;51.634;5.562;2023-03-21T09:12:42;101290.34;;;9.38;100.00
59513;BME280;45330;51.634;5.562;2023-03-21T09:15:09;101291.22;;;9.42;100.00
59513;BME280;45330;51.634;5.562;2023-03-21T09:17:39;101277.34;;;9.40;100.00
59513;BME280;45330;51.634;5.562;2023-03-21T09:20:11;101260.03;;;9.36;100.00
59513;BME280;45330;51.634;5.562;2023-03-21T09:22:47;101270.47;;;9.47;100.00
59513;BME280;45330;51.634;5.562;2023-03-21T09:25:16;101260.09;;;9.47;100.00
59513;BME280;45330;51.634;5.562;2023-03-21T09:27:43;101264.44;;;9.51;100.00
59513;BME280;45330;51.634;5.562;2023-03-21T09:30:14;101261.88;;;9.61;100.00
59513;BME280;45330;51.634;5.562;2023-03-21T09:32:40;101251.53;;;9.66;100.00
59513;BME280;45330;51.634;5.562;2023-03-21T09:35:06;101261.09;;;9.79;100.00
59513;BME280;45330;51.634;5.562;2023-03-21T09:37:34;101264.59;;;9.94;100.00
59513;BME280;45330;51.634;5.562;2023-03-21T09:40:02;101252.50;;;10.07;100.00
59513;BME280;45330;51.634;5.562;2023-03-21T09:45:18;101265.56;;;10.28;100.00
59513;BME280;45330;51.634;5.562;2023-03-21T09:47:48;101265.56;;;10.27;100.00
59513;BME280;45330;51.634;5.562;2023-03-21T09:53:11;101245.59;;;10.18;100.00
59513;BME280;45330;51.634;5.562;2023-03-21T09:55:39;101252.56;;;10.30;100.00
59513;BME280;45330;51.634;5.562;2023-03-21T10:00:40;101243.09;;;10.51;100.00
59513;BME280;45330;51.634;5.562;2023-03-21T10:05:42;101245.66;;;10.61;100.00
59513;BME280;45330;51.634;5.562;2023-03-21T10:08:24;101224.88;;;10.51;100.00
59513;BME280;45330;51.634;5.562;2023-03-21T10:10:57;101236.13;;;10.57;100.00
59513;BME280;45330;51.634;5.562;2023-03-21T10:13:28;101216.19;;;10.59;100.00
59513;BME280;45330;51.634;5.562;2023-03-21T10:15:57;101230.94;;;10.79;100.00
59513;BME280;45330;51.634;5.562;2023-03-21T10:18:26;101217.88;;;10.90;100.00
59513;BME280;45330;51.634;5.562;2023-03-21T10:20:53;101226.56;;;10.95;100.00
59513;BME280;45330;51.634;5.562;2023-03-21T10:23:21;101226.56;;;10.92;100.00
59513;BME280;45330;51.634;5.562;2023-03-21T10:25:52;101212.69;;;10.96;100.00
59513;BME280;45330;51.634;5.562;2023-03-21T10:28:22;101232.63;;;11.12;100.00
59513;BME280;45330;51.634;5.562;2023-03-21T10:30:54;101221.31;;;11.20;100.00
59513;BME280;45330;51.634;5.562;2023-03-21T10:33:26;101212.56;;;11.36;100.00
59513;BME280;45330;51.634;5.562;2023-03-21T10:35:54;101209.94;;;11.44;100.00
59513;BME280;45330;51.634;5.562;2023-03-21T10:38:23;101197.72;;;11.57;100.00
59513;BME280;45330;51.634;5.562;2023-03-21T10:40:49;101214.16;;;11.71;100.00
59513;BME280;45330;51.634;5.562;2023-03-21T10:45:45;101207.97;;;11.91;100.00
59513;BME280;45330;51.634;5.562;2023-03-21T10:48:10;101202.69;;;12.06;100.00
59513;BME280;45330;51.634;5.562;2023-03-21T10:50:36;101200.00;;;12.18;100.00
59513;BME280;45330;51.634;5.562;2023-03-21T10:53:02;101196.44;;;12.30;100.00
59513;BME280;45330;51.634;5.562;2023-03-21T10:55:32;101217.19;;;12.47;100.00
59513;BME280;45330;51.634;5.562;2023-03-21T10:58:02;101218.06;;;12.49;100.00
59513;BME280;45330;51.634;5.562;2023-03-21T11:00:33;101206.72;;;12.52;100.00
59513;BME280;45330;51.634;5.562;2023-03-21T11:03:00;101205.84;;;12.51;100.00
59513;BME280;45330;51.634;5.562;2023-03-21T11:05:33;101227.50;;;12.61;100.00
59513;BME280;45330;51.634;5.562;2023-03-21T11:08:02;101219.66;;;12.63;100.00
59513;BME280;45330;51.634;5.562;2023-03-21T11:10:31;101202.25;;;12.65;100.00
59513;BME280;45330;51.634;5.562;2023-03-21T11:13:02;101200.38;;;12.79;100.00
59513;BME280;45330;51.634;5.562;2023-03-21T11:17:59;101206.19;;;13.06;100.00
59513;BME280;45330;51.634;5.562;2023-03-21T11:20:43;101218.97;;;13.35;100.00
59513;BME280;45330;51.634;5.562;2023-03-21T11:23:11;101213.63;;;13.46;100.00
59513;BME280;45330;51.634;5.562;2023-03-21T11:25:40;101216.31;;;13.40;100.00
59513;BME280;45330;51.634;5.562;2023-03-21T11:28:15;101207.81;;;13.19;100.00
59513;BME280;45330;51.634;5.562;2023-03-21T11:30:55;101192.91;;;13.29;100.00
59513;BME280;45330;51.634;5.562;2023-03-21T11:33:24;101201.47;;;13.44;100.00
59513;BME280;45330;51.634;5.562;2023-03-21T11:38:48;101217.22;;;13.33;100.00
59513;BME280;45330;51.634;5.562;2023-03-21T11:41:30;101207.69;;;13.32;100.00
59513;BME280;45330;51.634;5.562;2023-03-21T11:43:57;101181.59;;;13.26;100.00
59513;BME280;45330;51.634;5.562;2023-03-21T11:46:27;101185.88;;;13.31;100.00
59513;BME280;45330;51.634;5.562;2023-03-21T11:48:54;101176.13;;;13.49;100.00
59513;BME280;45330;51.634;5.562;2023-03-21T11:52:00;101193.19;;;13.76;100.00
59513;BME280;45330;51.634;5.562;2023-03-21T12:03:14;101164.22;;;13.92;100.00
59513;BME280;45330;51.634;5.562;2023-03-21T12:05:54;101164.22;;;13.92;100.00
59513;BME280;45330;51.634;5.562;2023-03-21T12:08:41;101174.19;;;14.22;100.00
59513;BME280;45330;51.634;5.562;2023-03-21T12:11:30;101179.25;;;14.35;100.00
59513;BME280;45330;51.634;5.562;2023-03-21T12:14:14;101175.53;;;14.47;100.00
59513;BME280;45330;51.634;5.562;2023-03-21T12:20:02;101169.84;;;14.21;100.00
59513;BME280;45330;51.634;5.562;2023-03-21T12:30:51;101151.22;;;14.41;100.00
59513;BME280;45330;51.634;5.562;2023-03-21T12:39:23;101132.16;;;14.83;96.88
59513;BME280;45330;51.634;5.562;2023-03-21T12:41:57;101146.06;;;14.87;93.88
59513;BME280;45330;51.634;5.562;2023-03-21T12:44:31;101139.09;;;14.86;91.15
59513;BME280;45330;51.634;5.562;2023-03-21T12:47:04;101128.16;;;14.62;91.97
59513;BME280;45330;51.634;5.562;2023-03-21T12:49:40;101127.69;;;14.38;93.74
59513;BME280;45330;51.634;5.562;2023-03-21T12:52:13;101138.03;;;14.46;94.36
59513;BME280;45330;51.634;5.562;2023-03-21T12:54:49;101130.41;;;14.32;93.63
59513;BME280;45330;51.634;5.562;2023-03-21T12:57:26;101142.84;;;14.19;92.88
59513;BME280;45330;51.634;5.562;2023-03-21T13:00:14;101129.69;;;14.24;96.31
59513;BME280;45330;51.634;5.562;2023-03-21T13:05:21;101120.97;;;14.23;93.28
59513;BME280;45330;51.634;5.562;2023-03-21T13:07:53;101112.19;;;14.28;95.45
59513;BME280;45330;51.634;5.562;2023-03-21T13:10:21;101118.81;;;14.47;92.91
59513;BME280;45330;51.634;5.562;2023-03-21T13:13:21;101121.84;;;14.74;94.45
59513;BME280;45330;51.634;5.562;2023-03-21T13:24:50;101115.41;;;15.33;91.95
59513;BME280;45330;51.634;5.562;2023-03-21T13:29:53;101084.50;;;15.49;81.01
59513;BME280;45330;51.634;5.562;2023-03-21T13:34:59;101100.53;;;15.35;83.33
59513;BME280;45330;51.634;5.562;2023-03-21T13:37:32;101089.53;;;15.17;83.79
59513;BME280;45330;51.634;5.562;2023-03-21T13:40:01;101099.75;;;15.30;81.23
59513;BME280;45330;51.634;5.562;2023-03-21T13:42:33;101089.31;;;15.28;81.63
59513;BME280;45330;51.634;5.562;2023-03-21T13:45:00;101084.09;;;15.26;80.04
59513;BME280;45330;51.634;5.562;2023-03-21T13:47:39;101091.41;;;15.12;80.70
59513;BME280;45330;51.634;5.562;2023-03-21T13:55:28;101076.16;;;15.30;80.03
59513;BME280;45330;51.634;5.562;2023-03-21T13:57:55;101072.66;;;15.31;78.45
59513;BME280;45330;51.634;5.562;2023-03-21T14:00:29;101060.16;;;15.42;77.57
59513;BME280;45330;51.634;5.562;2023-03-21T14:02:58;101052.97;;;15.50;78.69
59513;BME280;45330;51.634;5.562;2023-03-21T14:05:26;101067.38;;;15.70;77.85
59513;BME280;45330;51.634;5.562;2023-03-21T14:07:57;101056.22;;;15.99;78.12
59513;BME280;45330;51.634;5.562;2023-03-21T14:10:37;101060.22;;;16.12;74.82
59513;BME280;45330;51.634;5.562;2023-03-21T14:13:04;101051.09;;;15.93;72.50
59513;BME280;45330;51.634;5.562;2023-03-21T14:15:44;101058.97;;;15.93;74.65
59513;BME280;45330;51.634;5.562;2023-03-21T14:18:17;101044.25;;;15.87;73.67
59513;BME280;45330;51.634;5.562;2023-03-21T14:20:43;101053.59;;;15.98;73.25
59513;BME280;45330;51.634;5.562;2023-03-21T14:23:14;101045.44;;;15.74;72.18
59513;BME280;45330;51.634;5.562;2023-03-21T14:25:40;101036.72;;;15.36;73.67
59513;BME280;45330;51.634;5.562;2023-03-21T14:28:23;101049.81;;;15.34;76.06
59513;BME280;45330;51.634;5.562;2023-03-21T14:30:51;101035.97;;;15.29;74.61
59513;BME280;45330;51.634;5.562;2023-03-21T14:33:30;101049.72;;;15.40;76.17
59513;BME280;45330;51.634;5.562;2023-03-21T14:35:58;101041.16;;;15.32;75.76
59513;BME280;45330;51.634;5.562;2023-03-21T14:38:31;101047.19;;;15.36;75.67
59513;BME280;45330;51.634;5.562;2023-03-21T14:40:57;101044.63;;;15.33;75.74
59513;BME280;45330;51.634;5.562;2023-03-21T14:43:23;101038.44;;;15.35;77.30